TPC341 KTUS-KTCS
Flight info
| Callsign | TPC341 |
|---|---|
| Flight time | 0h 34m |
| Altitude | 27000 |
| Route | NOCHI SSO J166 TCS |
| Aircraft | B738/M-SDE2E3FGHIRWXY/LB1 |
Departure
| Time | 2026-04-24 02:09 |
|---|---|
| Airport | Tucson International Airport (KTUS) |
Arrival
| Time | 2026-04-24 02:43 |
|---|---|
| Airport | Truth or Consequences Municipal Airport (KTCS) |
| Time | Latitude | Longitude | Altitude | Speed | Heading |
|---|---|---|---|---|---|
| 2026-04-24 01:47 | 32.12554 | -110.94559 | 2572 ft | 0 kts | 88° |
| 2026-04-24 01:51 | 32.12554 | -110.94560 | 2572 ft | 0 kts | 88° |
| 2026-04-24 01:56 | 32.12553 | -110.94560 | 2572 ft | 0 kts | 88° |
| 2026-04-24 01:57 | 32.12554 | -110.94560 | 2572 ft | 0 kts | 88° |
| 2026-04-24 01:58 | 32.12553 | -110.94560 | 2572 ft | 0 kts | 88° |
| 2026-04-24 01:58 | 32.12554 | -110.94560 | 2572 ft | 0 kts | 88° |
| 2026-04-24 01:59 | 32.12553 | -110.94560 | 2572 ft | 0 kts | 88° |
| 2026-04-24 02:00 | 32.12555 | -110.94548 | 2571 ft | 6 kts | 77° |
| 2026-04-24 02:00 | 32.12580 | -110.94518 | 2570 ft | 4 kts | 6° |
| 2026-04-24 02:00 | 32.12605 | -110.94539 | 2574 ft | 5 kts | 315° |
| 2026-04-24 02:01 | 32.12629 | -110.94566 | 2574 ft | 5 kts | 310° |
| 2026-04-24 02:01 | 32.12622 | -110.94599 | 2573 ft | 5 kts | 218° |
| 2026-04-24 02:01 | 32.12584 | -110.94637 | 2570 ft | 11 kts | 224° |
| 2026-04-24 02:01 | 32.12521 | -110.94710 | 2569 ft | 13 kts | 216° |
| 2026-04-24 02:02 | 32.12445 | -110.94673 | 2570 ft | 13 kts | 135° |
| 2026-04-24 02:02 | 32.12382 | -110.94600 | 2572 ft | 13 kts | 135° |
| 2026-04-24 02:02 | 32.12322 | -110.94528 | 2573 ft | 12 kts | 135° |
| 2026-04-24 02:02 | 32.12262 | -110.94458 | 2572 ft | 12 kts | 135° |
| 2026-04-24 02:03 | 32.12131 | -110.94302 | 2582 ft | 13 kts | 135° |
| 2026-04-24 02:03 | 32.12067 | -110.94226 | 2589 ft | 13 kts | 136° |
| 2026-04-24 02:03 | 32.12001 | -110.94151 | 2586 ft | 14 kts | 134° |
| 2026-04-24 02:04 | 32.11920 | -110.94055 | 2591 ft | 19 kts | 135° |
| 2026-04-24 02:04 | 32.11818 | -110.93936 | 2588 ft | 22 kts | 135° |
| 2026-04-24 02:04 | 32.11703 | -110.93799 | 2594 ft | 23 kts | 136° |
| 2026-04-24 02:04 | 32.11590 | -110.93666 | 2602 ft | 23 kts | 135° |
| 2026-04-24 02:05 | 32.11479 | -110.93538 | 2609 ft | 22 kts | 137° |
| 2026-04-24 02:05 | 32.11373 | -110.93413 | 2615 ft | 21 kts | 135° |
| 2026-04-24 02:05 | 32.11269 | -110.93291 | 2618 ft | 21 kts | 135° |
| 2026-04-24 02:05 | 32.11168 | -110.93174 | 2619 ft | 20 kts | 135° |
| 2026-04-24 02:06 | 32.11071 | -110.93059 | 2621 ft | 19 kts | 135° |
| 2026-04-24 02:06 | 32.10978 | -110.92949 | 2625 ft | 19 kts | 135° |
| 2026-04-24 02:06 | 32.10887 | -110.92841 | 2628 ft | 18 kts | 134° |
| 2026-04-24 02:06 | 32.10798 | -110.92738 | 2634 ft | 18 kts | 135° |
| 2026-04-24 02:07 | 32.10712 | -110.92636 | 2637 ft | 18 kts | 134° |
| 2026-04-24 02:07 | 32.10625 | -110.92535 | 2643 ft | 17 kts | 135° |
| 2026-04-24 02:07 | 32.10530 | -110.92421 | 2646 ft | 22 kts | 135° |
| 2026-04-24 02:07 | 32.10420 | -110.92293 | 2648 ft | 22 kts | 135° |
| 2026-04-24 02:08 | 32.10304 | -110.92259 | 2654 ft | 19 kts | 224° |
| 2026-04-24 02:08 | 32.10266 | -110.92362 | 2655 ft | 12 kts | 304° |
| 2026-04-24 02:08 | 32.10387 | -110.92504 | 2647 ft | 62 kts | 315° |
| 2026-04-24 02:08 | 32.10922 | -110.93131 | 2632 ft | 152 kts | 314° |
| 2026-04-24 02:09 | 32.11767 | -110.94094 | 3422 ft | 177 kts | 315° |
| 2026-04-24 02:09 | 32.12719 | -110.95101 | 4305 ft | 190 kts | 318° |
| 2026-04-24 02:09 | 32.13775 | -110.96115 | 5043 ft | 199 kts | 315° |
| 2026-04-24 02:09 | 32.14733 | -110.97285 | 5752 ft | 203 kts | 310° |
| 2026-04-24 02:10 | 32.15718 | -110.98521 | 6468 ft | 209 kts | 311° |
| 2026-04-24 02:10 | 32.16738 | -110.99783 | 7160 ft | 218 kts | 311° |
| 2026-04-24 02:10 | 32.17820 | -111.01106 | 7888 ft | 227 kts | 311° |
| 2026-04-24 02:10 | 32.18941 | -111.02468 | 8652 ft | 236 kts | 311° |
| 2026-04-24 02:11 | 32.20113 | -111.03884 | 9436 ft | 246 kts | 312° |
| 2026-04-24 02:11 | 32.21579 | -111.05025 | 10145 ft | 265 kts | 339° |
| 2026-04-24 02:11 | 32.23470 | -111.05151 | 10888 ft | 286 kts | 7° |
| 2026-04-24 02:11 | 32.25294 | -111.04067 | 11611 ft | 306 kts | 36° |
| 2026-04-24 02:12 | 32.26903 | -111.02361 | 12403 ft | 315 kts | 38° |
| 2026-04-24 02:12 | 32.28547 | -111.00591 | 13167 ft | 324 kts | 39° |
| 2026-04-24 02:12 | 32.29965 | -110.98451 | 13894 ft | 341 kts | 63° |
| 2026-04-24 02:12 | 32.30585 | -110.95721 | 14633 ft | 350 kts | 83° |
| 2026-04-24 02:13 | 32.30809 | -110.92822 | 15372 ft | 358 kts | 85° |
| 2026-04-24 02:13 | 32.30983 | -110.89863 | 16111 ft | 364 kts | 85° |
| 2026-04-24 02:13 | 32.31155 | -110.86863 | 16679 ft | 377 kts | 85° |
| 2026-04-24 02:13 | 32.31348 | -110.83696 | 16972 ft | 397 kts | 85° |
| 2026-04-24 02:14 | 32.31567 | -110.80328 | 16994 ft | 423 kts | 84° |
| 2026-04-24 02:14 | 32.31827 | -110.76759 | 16978 ft | 446 kts | 82° |
| 2026-04-24 02:14 | 32.32509 | -110.73113 | 16967 ft | 462 kts | 71° |
| 2026-04-24 02:14 | 32.33486 | -110.69478 | 16933 ft | 465 kts | 69° |
| 2026-04-24 02:15 | 32.34580 | -110.65859 | 17057 ft | 472 kts | 68° |
| 2026-04-24 02:15 | 32.35655 | -110.62202 | 17783 ft | 469 kts | 68° |
| 2026-04-24 02:15 | 32.36697 | -110.58588 | 18406 ft | 469 kts | 68° |
| 2026-04-24 02:15 | 32.37767 | -110.54903 | 18814 ft | 475 kts | 69° |
| 2026-04-24 02:16 | 32.38449 | -110.52412 | 19053 ft | 479 kts | 70° |
| 2026-04-24 02:16 | 32.39483 | -110.48652 | 19460 ft | 483 kts | 70° |
| 2026-04-24 02:16 | 32.40520 | -110.44863 | 19915 ft | 485 kts | 70° |
| 2026-04-24 02:16 | 32.41568 | -110.41032 | 20365 ft | 489 kts | 70° |
| 2026-04-24 02:17 | 32.42610 | -110.37222 | 20779 ft | 492 kts | 70° |
| 2026-04-24 02:17 | 32.43677 | -110.33334 | 21177 ft | 496 kts | 71° |
| 2026-04-24 02:17 | 32.44755 | -110.29420 | 21552 ft | 500 kts | 70° |
| 2026-04-24 02:17 | 32.45819 | -110.25545 | 21993 ft | 502 kts | 71° |
| 2026-04-24 02:18 | 32.46902 | -110.21597 | 22356 ft | 506 kts | 71° |
| 2026-04-24 02:18 | 32.47992 | -110.17615 | 22690 ft | 511 kts | 71° |
| 2026-04-24 02:18 | 32.49089 | -110.13603 | 23058 ft | 513 kts | 71° |
| 2026-04-24 02:18 | 32.50193 | -110.09555 | 23392 ft | 517 kts | 71° |
| 2026-04-24 02:19 | 32.51302 | -110.05490 | 23664 ft | 520 kts | 71° |
| 2026-04-24 02:19 | 32.52416 | -110.01396 | 23954 ft | 522 kts | 71° |
| 2026-04-24 02:19 | 32.53525 | -109.97319 | 24561 ft | 515 kts | 71° |
| 2026-04-24 02:19 | 32.54609 | -109.93322 | 25410 ft | 505 kts | 71° |
| 2026-04-24 02:20 | 32.55666 | -109.89423 | 26101 ft | 501 kts | 71° |
| 2026-04-24 02:20 | 32.56737 | -109.85468 | 26574 ft | 503 kts | 71° |
| 2026-04-24 02:20 | 32.57810 | -109.81509 | 26842 ft | 508 kts | 71° |
| 2026-04-24 02:20 | 32.58891 | -109.77509 | 26849 ft | 509 kts | 71° |
| 2026-04-24 02:21 | 32.59972 | -109.73504 | 26830 ft | 513 kts | 71° |
| 2026-04-24 02:21 | 32.61065 | -109.69447 | 26843 ft | 520 kts | 71° |
| 2026-04-24 02:21 | 32.62172 | -109.65331 | 26884 ft | 527 kts | 71° |
| 2026-04-24 02:21 | 32.63291 | -109.61164 | 26889 ft | 533 kts | 71° |
| 2026-04-24 02:22 | 32.64420 | -109.56950 | 26888 ft | 535 kts | 71° |
| 2026-04-24 02:22 | 32.65529 | -109.52803 | 26880 ft | 533 kts | 71° |
| 2026-04-24 02:22 | 32.66648 | -109.48612 | 26889 ft | 533 kts | 71° |
| 2026-04-24 02:22 | 32.67768 | -109.44414 | 26882 ft | 533 kts | 71° |
| 2026-04-24 02:23 | 32.68890 | -109.40228 | 26864 ft | 533 kts | 71° |
| 2026-04-24 02:23 | 32.70012 | -109.36023 | 26856 ft | 533 kts | 71° |
| 2026-04-24 02:23 | 32.71124 | -109.31828 | 26843 ft | 533 kts | 71° |
| 2026-04-24 02:23 | 32.72233 | -109.27638 | 26835 ft | 533 kts | 71° |
| 2026-04-24 02:24 | 32.73342 | -109.23442 | 26820 ft | 532 kts | 71° |
| 2026-04-24 02:24 | 32.74452 | -109.19239 | 26818 ft | 532 kts | 71° |
| 2026-04-24 02:24 | 32.75561 | -109.15038 | 26823 ft | 532 kts | 71° |
| 2026-04-24 02:24 | 32.76670 | -109.10833 | 26837 ft | 532 kts | 71° |
| 2026-04-24 02:25 | 32.77761 | -109.06689 | 26833 ft | 532 kts | 71° |
| 2026-04-24 02:25 | 32.78880 | -109.02436 | 26830 ft | 532 kts | 71° |
| 2026-04-24 02:25 | 32.79968 | -108.98291 | 26829 ft | 532 kts | 71° |
| 2026-04-24 02:25 | 32.81071 | -108.94085 | 26832 ft | 532 kts | 71° |
| 2026-04-24 02:26 | 32.82171 | -108.89886 | 26829 ft | 532 kts | 71° |
| 2026-04-24 02:26 | 32.83275 | -108.85665 | 26837 ft | 532 kts | 71° |
| 2026-04-24 02:26 | 32.84363 | -108.81495 | 26834 ft | 533 kts | 71° |
| 2026-04-24 02:26 | 32.85464 | -108.77268 | 26825 ft | 533 kts | 71° |
| 2026-04-24 02:27 | 32.86559 | -108.73063 | 26831 ft | 533 kts | 71° |
| 2026-04-24 02:27 | 32.87656 | -108.68840 | 26832 ft | 532 kts | 71° |
| 2026-04-24 02:27 | 32.88747 | -108.64633 | 26837 ft | 532 kts | 71° |
| 2026-04-24 02:27 | 32.89835 | -108.60426 | 26837 ft | 532 kts | 71° |
| 2026-04-24 02:28 | 32.90924 | -108.56208 | 26842 ft | 532 kts | 71° |
| 2026-04-24 02:28 | 32.92010 | -108.51997 | 26668 ft | 534 kts | 71° |
| 2026-04-24 02:28 | 32.93091 | -108.47799 | 26034 ft | 526 kts | 71° |
| 2026-04-24 02:28 | 32.94144 | -108.43707 | 25231 ft | 519 kts | 71° |
| 2026-04-24 02:29 | 32.95194 | -108.39620 | 24381 ft | 514 kts | 72° |
| 2026-04-24 02:29 | 32.96234 | -108.35564 | 23574 ft | 510 kts | 72° |
| 2026-04-24 02:29 | 32.97267 | -108.31531 | 22655 ft | 506 kts | 72° |
| 2026-04-24 02:29 | 32.98288 | -108.27538 | 21714 ft | 502 kts | 72° |
| 2026-04-24 02:30 | 32.99298 | -108.23582 | 20818 ft | 497 kts | 71° |
| 2026-04-24 02:30 | 33.00297 | -108.19662 | 19944 ft | 492 kts | 71° |
| 2026-04-24 02:30 | 33.01287 | -108.15774 | 19091 ft | 488 kts | 71° |
| 2026-04-24 02:30 | 33.02250 | -108.11963 | 18253 ft | 472 kts | 71° |
| 2026-04-24 02:31 | 33.03185 | -108.08275 | 17336 ft | 456 kts | 71° |
| 2026-04-24 02:31 | 33.04095 | -108.04696 | 16535 ft | 449 kts | 71° |
| 2026-04-24 02:31 | 33.05000 | -108.01138 | 15830 ft | 446 kts | 71° |
| 2026-04-24 02:31 | 33.05884 | -107.97650 | 15163 ft | 444 kts | 71° |
| 2026-04-24 02:32 | 33.06759 | -107.94112 | 14507 ft | 443 kts | 73° |
| 2026-04-24 02:32 | 33.07511 | -107.90554 | 13852 ft | 443 kts | 77° |
| 2026-04-24 02:32 | 33.07767 | -107.86895 | 13158 ft | 442 kts | 91° |
| 2026-04-24 02:32 | 33.07584 | -107.83253 | 12460 ft | 439 kts | 96° |
| 2026-04-24 02:33 | 33.07056 | -107.79730 | 12098 ft | 423 kts | 108° |
| 2026-04-24 02:33 | 33.06051 | -107.76506 | 11997 ft | 403 kts | 113° |
| 2026-04-24 02:33 | 33.05131 | -107.73473 | 11882 ft | 388 kts | 117° |
| 2026-04-24 02:33 | 33.03995 | -107.70682 | 11978 ft | 364 kts | 116° |
| 2026-04-24 02:34 | 33.03192 | -107.67865 | 11948 ft | 351 kts | 109° |
| 2026-04-24 02:34 | 33.02472 | -107.65143 | 11962 ft | 336 kts | 111° |
| 2026-04-24 02:34 | 33.01725 | -107.62578 | 12009 ft | 325 kts | 103° |
| 2026-04-24 02:34 | 33.01835 | -107.59936 | 11955 ft | 321 kts | 77° |
| 2026-04-24 02:35 | 33.01927 | -107.57268 | 11634 ft | 324 kts | 98° |
| 2026-04-24 02:35 | 33.01675 | -107.54663 | 11272 ft | 317 kts | 94° |
| 2026-04-24 02:35 | 33.01569 | -107.52027 | 10653 ft | 320 kts | 93° |
| 2026-04-24 02:35 | 33.01438 | -107.49409 | 10268 ft | 311 kts | 96° |
| 2026-04-24 02:36 | 33.01117 | -107.46870 | 9603 ft | 313 kts | 92° |
| 2026-04-24 02:36 | 33.01156 | -107.44307 | 9436 ft | 309 kts | 87° |
| 2026-04-24 02:36 | 33.01118 | -107.41778 | 9197 ft | 295 kts | 91° |
| 2026-04-24 02:36 | 33.01174 | -107.39419 | 9021 ft | 276 kts | 74° |
| 2026-04-24 02:37 | 33.01994 | -107.37528 | 8974 ft | 243 kts | 44° |
| 2026-04-24 02:37 | 33.03149 | -107.36186 | 8673 ft | 223 kts | 28° |
| 2026-04-24 02:37 | 33.04459 | -107.35357 | 8452 ft | 206 kts | 14° |
| 2026-04-24 02:37 | 33.05772 | -107.34757 | 8381 ft | 199 kts | 12° |
| 2026-04-24 02:38 | 33.07040 | -107.34133 | 8145 ft | 206 kts | 23° |
| 2026-04-24 02:38 | 33.08125 | -107.32980 | 7908 ft | 214 kts | 45° |
| 2026-04-24 02:38 | 33.09048 | -107.31645 | 7756 ft | 199 kts | 44° |
| 2026-04-24 02:38 | 33.09836 | -107.30311 | 7632 ft | 200 kts | 54° |
| 2026-04-24 02:39 | 33.10506 | -107.28838 | 7336 ft | 203 kts | 60° |
| 2026-04-24 02:39 | 33.11189 | -107.27383 | 7070 ft | 198 kts | 50° |
| 2026-04-24 02:39 | 33.12126 | -107.26250 | 6763 ft | 191 kts | 32° |
| 2026-04-24 02:39 | 33.13138 | -107.25265 | 6642 ft | 183 kts | 36° |
| 2026-04-24 02:40 | 33.14162 | -107.24336 | 6658 ft | 187 kts | 28° |
| 2026-04-24 02:40 | 33.15283 | -107.23520 | 6893 ft | 189 kts | 25° |
| 2026-04-24 02:40 | 33.16369 | -107.22844 | 6865 ft | 171 kts | 14° |
| 2026-04-24 02:40 | 33.17467 | -107.22591 | 6614 ft | 148 kts | 356° |
| 2026-04-24 02:41 | 33.18409 | -107.22795 | 6284 ft | 134 kts | 330° |
| 2026-04-24 02:41 | 33.19217 | -107.23365 | 5850 ft | 133 kts | 322° |
| 2026-04-24 02:41 | 33.19943 | -107.24005 | 5552 ft | 129 kts | 322° |
| 2026-04-24 02:41 | 33.20674 | -107.24645 | 5344 ft | 130 kts | 319° |
| 2026-04-24 02:42 | 33.21409 | -107.25241 | 5188 ft | 125 kts | 318° |
| 2026-04-24 02:42 | 33.22169 | -107.25890 | 4953 ft | 140 kts | 322° |
| 2026-04-24 02:42 | 33.22922 | -107.26523 | 4834 ft | 123 kts | 321° |
| 2026-04-24 02:42 | 33.23489 | -107.27011 | 4836 ft | 70 kts | 328° |
| 2026-04-24 02:43 | 33.23715 | -107.27194 | 4839 ft | 18 kts | 324° |
| 2026-04-24 02:43 | 33.23815 | -107.27279 | 4843 ft | 17 kts | 325° |
| 2026-04-24 02:43 | 33.23912 | -107.27358 | 4843 ft | 17 kts | 325° |
| 2026-04-24 02:43 | 33.24004 | -107.27439 | 4848 ft | 16 kts | 323° |
| 2026-04-24 02:44 | 33.24095 | -107.27512 | 4853 ft | 15 kts | 326° |
| 2026-04-24 02:44 | 33.24180 | -107.27585 | 4858 ft | 15 kts | 323° |
| 2026-04-24 02:44 | 33.24261 | -107.27657 | 4862 ft | 14 kts | 326° |
| 2026-04-24 02:44 | 33.24319 | -107.27688 | 4865 ft | 8 kts | 13° |
| 2026-04-24 02:45 | 33.24341 | -107.27634 | 4864 ft | 8 kts | 111° |
| 2026-04-24 02:45 | 33.24290 | -107.27578 | 4861 ft | 12 kts | 140° |
| 2026-04-24 02:45 | 33.24220 | -107.27502 | 4858 ft | 15 kts | 137° |
| 2026-04-24 02:45 | 33.24142 | -107.27411 | 4854 ft | 17 kts | 137° |
| 2026-04-24 02:46 | 33.24053 | -107.27311 | 4850 ft | 19 kts | 136° |
| 2026-04-24 02:46 | 33.23957 | -107.27202 | 4846 ft | 20 kts | 137° |
| 2026-04-24 02:46 | 33.23877 | -107.27114 | 4842 ft | 10 kts | 140° |
| 2026-04-24 02:46 | 33.23819 | -107.27050 | 4840 ft | 12 kts | 135° |
| 2026-04-24 02:47 | 33.23761 | -107.26972 | 4839 ft | 13 kts | 123° |
| 2026-04-24 02:47 | 33.23704 | -107.26905 | 4836 ft | 5 kts | 141° |
| 2026-04-24 02:47 | 33.23674 | -107.26888 | 4841 ft | 2 kts | 191° |
| 2026-04-24 02:47 | 33.23666 | -107.26902 | 4840 ft | 0 kts | 236° |
| 2026-04-24 02:56 | 33.23666 | -107.26901 | 4835 ft | 0 kts | 236° |